Time;durP1;ratioP1;P1;durP2;ratioP2;P2;SDS_P1;SDS_P2;PMS_P1;PMS_P2;Temp;Humidity;BMP_temperature;BMP_pressure;BME280_temperature;BME280_humidity;BME280_pressure;Samples;Min_cycle;Max_cycle;Signal;HPM_P1;HPM_P2
2023/06/22 00:00:52;;;;;;;2.38;1.17;;;19.30;99.90;;;;;;5007620;28;20022;-83
2023/06/22 00:03:19;;;;;;;2.42;1.27;;;19.30;99.90;;;;;;5009599;28;20481;-83
2023/06/22 00:05:48;;;;;;;2.58;1.38;;;19.30;99.90;;;;;;5023870;28;20152;-85
2023/06/22 00:08:15;;;;;;;3.33;1.73;;;19.30;99.90;;;;;;5005588;28;20576;-83
2023/06/22 00:10:41;;;;;;;2.00;1.20;;;19.30;99.90;;;;;;4989490;28;20042;-85
2023/06/22 00:13:07;;;;;;;3.20;1.90;;;19.30;99.90;;;;;;5010745;28;20079;-84
2023/06/22 00:15:34;;;;;;;2.60;1.48;;;19.20;99.90;;;;;;5010167;28;20033;-85
2023/06/22 00:18:00;;;;;;;2.50;1.60;;;19.20;99.90;;;;;;5025911;28;20087;-86
2023/06/22 00:20:29;;;;;;;2.75;1.38;;;19.20;99.90;;;;;;5012312;28;20113;-86
2023/06/22 00:22:57;;;;;;;5.25;2.72;;;19.10;99.90;;;;;;5024563;28;20058;-86
2023/06/22 00:25:23;;;;;;;4.07;2.08;;;19.10;99.90;;;;;;4991484;28;20604;-86
2023/06/22 00:27:49;;;;;;;4.05;1.85;;;19.10;99.90;;;;;;5005637;28;20068;-85
2023/06/22 00:30:18;;;;;;;3.10;2.17;;;19.10;99.90;;;;;;4993160;28;20078;-86
2023/06/22 00:32:45;;;;;;;2.95;2.17;;;19.00;99.90;;;;;;4992959;28;20462;-86
2023/06/22 00:35:13;;;;;;;4.45;3.40;;;19.00;99.90;;;;;;5008450;28;20116;-84
2023/06/22 00:37:42;;;;;;;4.45;2.47;;;19.00;99.90;;;;;;5022918;28;20120;-86
2023/06/22 00:40:11;;;;;;;3.17;2.17;;;18.90;99.90;;;;;;4993332;28;20072;-87
2023/06/22 00:42:40;;;;;;;3.33;2.25;;;18.90;99.90;;;;;;5004212;28;20049;-86
2023/06/22 00:45:08;;;;;;;3.13;2.00;;;18.90;99.90;;;;;;4994555;28;20030;-83
2023/06/22 00:47:37;;;;;;;2.90;2.17;;;18.80;99.90;;;;;;5011342;28;20030;-83
2023/06/22 00:50:08;;;;;;;2.95;1.85;;;18.90;99.90;;;;;;5006032;28;20038;-82
2023/06/22 00:52:35;;;;;;;2.65;1.83;;;18.80;99.90;;;;;;5010654;28;20479;-83
2023/06/22 00:55:02;;;;;;;2.85;1.33;;;18.80;99.90;;;;;;5008867;28;20034;-83
2023/06/22 00:57:28;;;;;;;2.88;1.55;;;18.70;99.90;;;;;;5009340;28;20022;-83
2023/06/22 00:59:55;;;;;;;4.55;1.70;;;18.70;99.90;;;;;;5010443;28;20057;-81
2023/06/22 01:02:21;;;;;;;2.55;1.73;;;18.60;99.90;;;;;;5023066;28;20053;-83
2023/06/22 01:04:46;;;;;;;4.10;2.30;;;18.50;99.90;;;;;;5008304;28;20460;-84
2023/06/22 01:07:39;;;;;;;2.70;1.80;;;18.50;99.90;;;;;;5006169;28;20025;-83
2023/06/22 01:10:24;;;;;;;4.90;1.52;;;18.40;99.90;;;;;;5020073;28;20047;-85
2023/06/22 01:12:58;;;;;;;2.60;1.50;;;18.50;99.90;;;;;;5006426;28;20030;-83
2023/06/22 01:15:46;;;;;;;2.88;1.70;;;18.40;99.90;;;;;;5010271;28;20100;-82
2023/06/22 01:18:13;;;;;;;3.03;1.75;;;18.40;99.90;;;;;;5003727;28;20040;-83
2023/06/22 01:20:40;;;;;;;3.58;1.85;;;18.40;99.90;;;;;;5009067;28;20072;-83
2023/06/22 01:23:15;;;;;;;2.92;1.85;;;18.40;99.90;;;;;;4992252;28;20060;-81
2023/06/22 01:25:57;;;;;;;3.40;1.98;;;18.30;99.90;;;;;;5007165;28;20045;-82
2023/06/22 01:28:42;;;;;;;2.90;1.92;;;18.20;99.90;;;;;;5023527;28;20045;-86
2023/06/22 01:31:12;;;;;;;3.45;2.15;;;18.10;99.90;;;;;;5009824;28;20167;-81
2023/06/22 01:33:41;;;;;;;3.63;2.53;;;18.00;99.90;;;;;;4992112;28;20509;-83
2023/06/22 01:36:08;;;;;;;3.00;2.08;;;17.90;99.90;;;;;;5006464;28;20112;-86
2023/06/22 01:38:38;;;;;;;2.53;2.00;;;17.90;99.90;;;;;;4990205;28;20042;-82
2023/06/22 01:41:04;;;;;;;3.65;2.75;;;17.90;99.90;;;;;;5020090;28;20030;-83
2023/06/22 01:43:30;;;;;;;3.50;2.85;;;17.90;99.90;;;;;;5040056;28;20034;-83
2023/06/22 01:45:58;;;;;;;3.50;2.25;;;17.80;99.90;;;;;;4989624;28;20045;-82
2023/06/22 01:48:25;;;;;;;3.78;2.38;;;17.80;99.90;;;;;;5006198;28;20030;-82
2023/06/22 01:50:53;;;;;;;3.05;2.47;;;17.80;99.90;;;;;;5035582;28;20046;-86
2023/06/22 01:53:20;;;;;;;4.18;2.28;;;17.70;99.90;;;;;;4990697;28;20048;-86
2023/06/22 01:55:46;;;;;;;3.53;2.88;;;17.80;99.90;;;;;;5010604;28;20065;-86
2023/06/22 01:58:12;;;;;;;4.00;3.42;;;17.80;99.90;;;;;;5010928;28;20049;-87
2023/06/22 02:00:40;;;;;;;4.53;3.30;;;17.80;99.90;;;;;;5019694;28;20034;-86
2023/06/22 02:03:11;;;;;;;2.60;2.00;;;17.80;99.90;;;;;;5022347;28;20030;-86
2023/06/22 02:05:45;;;;;;;4.93;2.53;;;17.80;99.90;;;;;;5004833;28;20025;-86
2023/06/22 02:08:24;;;;;;;3.13;2.47;;;17.80;99.90;;;;;;5037587;28;20036;-82
2023/06/22 02:10:52;;;;;;;3.27;2.70;;;17.80;99.90;;;;;;5009687;28;20049;-82
2023/06/22 02:13:20;;;;;;;3.83;2.53;;;17.80;99.90;;;;;;4990901;28;20029;-83
2023/06/22 02:15:47;;;;;;;3.20;2.53;;;17.70;99.90;;;;;;4988544;28;20072;-86
2023/06/22 02:18:13;;;;;;;2.90;2.55;;;17.70;99.90;;;;;;5009352;28;20026;-81
2023/06/22 02:20:39;;;;;;;3.00;2.58;;;17.70;99.90;;;;;;5007705;28;20394;-85
2023/06/22 02:23:06;;;;;;;3.85;3.17;;;17.60;99.90;;;;;;5005230;28;20554;-82
2023/06/22 02:25:35;;;;;;;3.53;2.78;;;17.60;99.90;;;;;;5003719;28;20034;-82
2023/06/22 02:28:01;;;;;;;5.25;3.25;;;17.60;99.90;;;;;;5007013;28;20573;-83
2023/06/22 02:30:27;;;;;;;2.97;2.60;;;17.60;99.90;;;;;;5022747;28;20061;-83
2023/06/22 02:33:00;;;;;;;4.70;2.90;;;17.60;99.90;;;;;;5003669;28;20454;-85
2023/06/22 02:35:27;;;;;;;4.38;2.95;;;17.50;99.90;;;;;;5006949;28;20046;-82
2023/06/22 02:38:01;;;;;;;4.20;3.08;;;17.50;99.90;;;;;;5006519;28;20018;-83
2023/06/22 02:40:27;;;;;;;4.30;3.17;;;17.50;99.90;;;;;;5007813;28;20025;-86
2023/06/22 02:42:58;;;;;;;5.53;2.92;;;17.50;99.90;;;;;;5002255;28;20526;-82
2023/06/22 02:45:23;;;;;;;4.13;3.72;;;17.60;99.90;;;;;;5008041;28;20025;-84
2023/06/22 02:47:50;;;;;;;6.03;3.58;;;17.60;99.90;;;;;;4985018;28;20022;-83
2023/06/22 02:50:16;;;;;;;4.25;3.05;;;17.50;99.90;;;;;;5037889;28;20331;-81
2023/06/22 02:52:43;;;;;;;3.40;2.88;;;17.50;99.90;;;;;;5003710;28;20087;-84
2023/06/22 02:55:09;;;;;;;5.20;3.45;;;17.60;99.90;;;;;;4990420;28;20144;-83
2023/06/22 02:57:35;;;;;;;3.25;2.70;;;17.50;99.90;;;;;;4990555;28;20065;-83
2023/06/22 03:00:04;;;;;;;4.50;3.50;;;17.50;99.90;;;;;;4989187;28;20092;-84
2023/06/22 03:02:30;;;;;;;6.00;3.95;;;17.50;99.90;;;;;;4992203;28;20495;-86
2023/06/22 03:04:56;;;;;;;4.30;3.65;;;17.50;99.90;;;;;;5006358;28;20064;-86
2023/06/22 03:07:21;;;;;;;4.07;3.08;;;17.50;99.90;;;;;;5005512;28;20105;-87
2023/06/22 03:09:49;;;;;;;4.00;3.08;;;17.50;99.90;;;;;;4988732;28;20034;-87
2023/06/22 03:12:15;;;;;;;3.42;2.63;;;17.50;99.90;;;;;;5004007;28;20037;-86
2023/06/22 03:14:52;;;;;;;4.55;2.83;;;17.50;99.90;;;;;;5006107;28;20037;-86
2023/06/22 03:17:18;;;;;;;4.03;3.47;;;17.50;99.90;;;;;;5002478;28;20025;-86
2023/06/22 03:19:44;;;;;;;3.42;2.92;;;17.50;99.90;;;;;;5004519;28;20026;-87
2023/06/22 03:22:09;;;;;;;3.92;3.38;;;17.50;99.90;;;;;;4986717;28;20444;-85
2023/06/22 03:24:37;;;;;;;4.00;2.97;;;17.50;99.90;;;;;;5007191;28;20034;-86
2023/06/22 03:27:04;;;;;;;2.47;1.80;;;17.40;99.90;;;;;;4993572;28;20026;-85
2023/06/22 03:29:31;;;;;;;4.00;2.67;;;17.40;99.90;;;;;;4991030;28;20049;-84
2023/06/22 03:31:56;;;;;;;4.35;3.55;;;17.40;99.90;;;;;;4991387;28;20027;-83
2023/06/22 03:34:22;;;;;;;4.88;3.72;;;17.40;99.90;;;;;;5003616;28;20042;-88
2023/06/22 03:36:51;;;;;;;3.93;3.03;;;17.40;99.90;;;;;;4990697;28;20022;-88
2023/06/22 03:39:17;;;;;;;4.20;3.25;;;17.40;99.90;;;;;;5020566;28;20040;-87
2023/06/22 03:41:42;;;;;;;3.53;3.22;;;17.40;99.90;;;;;;5023292;28;20038;-87
2023/06/22 03:44:12;;;;;;;5.18;4.25;;;17.40;99.90;;;;;;4990628;28;20099;-82
2023/06/22 03:46:38;;;;;;;4.78;3.28;;;17.30;99.90;;;;;;5000171;28;20454;-87
2023/06/22 03:49:04;;;;;;;3.42;2.97;;;17.30;99.90;;;;;;4991614;28;20088;-87
2023/06/22 03:51:32;;;;;;;6.28;4.13;;;17.30;99.90;;;;;;5013588;28;20050;-86
2023/06/22 03:53:58;;;;;;;4.85;4.05;;;17.30;99.90;;;;;;4991695;28;20034;-86
2023/06/22 03:56:23;;;;;;;8.93;6.25;;;17.30;99.90;;;;;;5001929;28;20034;-83
2023/06/22 03:58:49;;;;;;;6.13;5.50;;;17.40;99.90;;;;;;5003978;28;20045;-87
2023/06/22 04:01:16;;;;;;;6.70;5.63;;;17.30;99.90;;;;;;4990358;28;20030;-87
2023/06/22 04:03:42;;;;;;;6.38;5.35;;;17.30;99.90;;;;;;5018021;28;20113;-83
2023/06/22 04:06:08;;;;;;;5.93;4.95;;;17.40;99.90;;;;;;5035771;28;20156;-83
2023/06/22 04:08:34;;;;;;;5.65;5.07;;;17.40;99.90;;;;;;5001933;28;20030;-84
2023/06/22 04:11:00;;;;;;;7.00;6.28;;;17.30;99.90;;;;;;5004914;28;20038;-84
2023/06/22 04:13:26;;;;;;;7.82;6.20;;;17.30;99.90;;;;;;5002706;28;20026;-87
2023/06/22 04:15:51;;;;;;;5.68;5.15;;;17.30;99.90;;;;;;4985442;28;20066;-83
2023/06/22 04:18:17;;;;;;;8.13;6.65;;;17.30;99.90;;;;;;5035622;28;20026;-87
2023/06/22 04:20:46;;;;;;;7.68;6.70;;;17.30;99.90;;;;;;5002547;28;20041;-82
2023/06/22 04:23:12;;;;;;;10.43;7.95;;;17.30;99.90;;;;;;4987644;28;20394;-85
2023/06/22 04:25:39;;;;;;;8.70;6.63;;;17.40;99.90;;;;;;5037068;28;20079;-82
2023/06/22 04:28:04;;;;;;;6.80;6.20;;;17.40;99.90;;;;;;5005966;28;20538;-85
2023/06/22 04:30:32;;;;;;;6.68;5.68;;;17.40;99.90;;;;;;4988052;28;20050;-82
2023/06/22 04:32:58;;;;;;;9.27;8.38;;;17.50;99.90;;;;;;4988754;28;20030;-85
2023/06/22 04:35:25;;;;;;;9.38;8.32;;;17.50;99.90;;;;;;5015189;28;20148;-85
2023/06/22 04:37:54;;;;;;;9.85;8.70;;;17.60;99.90;;;;;;5017478;28;20378;-85
2023/06/22 04:40:24;;;;;;;8.30;7.45;;;17.60;99.90;;;;;;5004349;28;20046;-83
2023/06/22 04:42:53;;;;;;;12.70;9.90;;;17.80;99.90;;;;;;5017083;28;20144;-85
2023/06/22 04:45:20;;;;;;;9.65;8.65;;;17.80;99.90;;;;;;5000775;28;20502;-84
2023/06/22 04:47:46;;;;;;;8.55;7.25;;;18.00;99.90;;;;;;4987206;28;20022;-83
2023/06/22 04:50:12;;;;;;;10.02;8.48;;;18.00;99.90;;;;;;4991209;28;20042;-82
2023/06/22 04:52:38;;;;;;;7.25;6.55;;;18.00;99.90;;;;;;5004775;28;20030;-83
2023/06/22 04:55:05;;;;;;;13.55;12.10;;;18.10;99.90;;;;;;5006286;28;20045;-82
2023/06/22 04:57:32;;;;;;;8.35;7.53;;;18.00;99.90;;;;;;5024706;28;20026;-81
2023/06/22 05:00:01;;;;;;;10.98;9.75;;;18.10;99.90;;;;;;5037090;28;20099;-82
2023/06/22 05:02:32;;;;;;;10.20;9.18;;;18.20;99.90;;;;;;5006707;28;20387;-81
2023/06/22 05:04:58;;;;;;;10.02;7.55;;;18.30;99.90;;;;;;5004697;28;20339;-82
2023/06/22 05:07:25;;;;;;;9.27;8.05;;;18.40;99.90;;;;;;5005526;28;20030;-83
2023/06/22 05:09:51;;;;;;;10.18;9.15;;;18.60;99.90;;;;;;5009288;28;20487;-82
2023/06/22 05:12:16;;;;;;;9.95;7.53;;;18.70;99.90;;;;;;5008832;28;20044;-82
2023/06/22 05:14:42;;;;;;;10.82;9.18;;;18.90;99.90;;;;;;5005785;28;20065;-82
2023/06/22 05:17:13;;;;;;;10.68;9.20;;;19.00;99.90;;;;;;5006521;28;20026;-82
2023/06/22 05:19:39;;;;;;;10.15;9.18;;;19.00;99.90;;;;;;5007060;28;20054;-82
2023/06/22 05:22:06;;;;;;;10.60;9.50;;;19.00;99.90;;;;;;5022160;28;20022;-82
2023/06/22 05:24:32;;;;;;;9.65;8.65;;;19.20;99.90;;;;;;5018144;28;20486;-81
2023/06/22 05:26:57;;;;;;;8.13;7.05;;;19.20;99.90;;;;;;5008997;28;20117;-82
2023/06/22 05:29:23;;;;;;;9.75;8.80;;;19.30;99.90;;;;;;4983313;28;20547;-82
2023/06/22 05:31:49;;;;;;;13.50;12.10;;;19.30;99.90;;;;;;5017553;28;20054;-81
2023/06/22 05:34:15;;;;;;;11.73;10.50;;;19.30;99.90;;;;;;5003872;28;20100;-83
2023/06/22 05:36:43;;;;;;;10.60;9.10;;;19.50;99.90;;;;;;4990088;28;20038;-82
2023/06/22 05:39:14;;;;;;;9.77;8.77;;;19.60;99.90;;;;;;5005890;28;20036;-81
2023/06/22 05:41:39;;;;;;;12.10;10.88;;;19.80;99.90;;;;;;5008274;28;20030;-82
2023/06/22 05:44:05;;;;;;;9.88;8.80;;;19.70;99.90;;;;;;4990329;28;20030;-82
2023/06/22 05:46:31;;;;;;;9.63;8.60;;;19.90;99.90;;;;;;5022535;28;20033;-82
2023/06/22 05:48:59;;;;;;;13.20;11.80;;;20.00;99.90;;;;;;5001778;28;20426;-82
2023/06/22 05:51:25;;;;;;;14.77;12.63;;;20.00;99.90;;;;;;5022416;28;20050;-83
2023/06/22 05:53:51;;;;;;;10.10;8.93;;;20.00;99.90;;;;;;5022403;28;20465;-82
2023/06/22 05:56:17;;;;;;;10.32;8.82;;;20.10;99.90;;;;;;5001067;28;20034;-83
2023/06/22 05:58:42;;;;;;;9.85;8.90;;;20.30;99.90;;;;;;5035889;28;20056;-81
2023/06/22 06:01:08;;;;;;;12.68;11.38;;;20.30;99.90;;;;;;5020878;28;20022;-81
2023/06/22 06:03:40;;;;;;;10.10;9.13;;;20.40;99.90;;;;;;4984695;28;20084;-81
2023/06/22 06:06:07;;;;;;;8.10;7.30;;;20.70;99.90;;;;;;5006461;28;20030;-82
2023/06/22 06:08:32;;;;;;;8.13;6.72;;;20.90;99.90;;;;;;5005010;28;20026;-81
2023/06/22 06:10:58;;;;;;;8.65;6.55;;;21.10;99.90;;;;;;5004799;28;20129;-82
2023/06/22 06:13:24;;;;;;;8.52;7.65;;;21.30;99.90;;;;;;5003036;28;20026;-81
2023/06/22 06:15:54;;;;;;;7.53;6.82;;;21.50;99.90;;;;;;5022322;28;20033;-81
2023/06/22 06:18:21;;;;;;;5.70;5.03;;;21.70;99.90;;;;;;4987988;28;20038;-81
2023/06/22 06:20:46;;;;;;;15.18;12.65;;;22.00;99.90;;;;;;4987012;28;20501;-82
2023/06/22 06:23:12;;;;;;;13.32;11.32;;;21.60;99.90;;;;;;5017967;28;20029;-83
2023/06/22 06:25:38;;;;;;;10.43;8.45;;;21.50;99.90;;;;;;5003565;28;20040;-81
2023/06/22 06:28:04;;;;;;;14.98;12.70;;;21.50;99.90;;;;;;4990518;28;20056;-82
2023/06/22 06:30:30;;;;;;;12.25;11.05;;;21.40;99.90;;;;;;5005118;28;20235;-82
2023/06/22 06:32:56;;;;;;;12.77;11.48;;;21.40;99.90;;;;;;5038838;28;20032;-81
2023/06/22 06:35:22;;;;;;;9.35;8.20;;;21.50;99.90;;;;;;5012256;28;20496;-81
2023/06/22 06:37:49;;;;;;;8.25;7.30;;;22.00;99.90;;;;;;4986833;28;20073;-82
2023/06/22 06:40:17;;;;;;;9.38;8.48;;;22.10;99.90;;;;;;5002847;28;20051;-81
2023/06/22 06:42:45;;;;;;;9.90;8.90;;;22.30;99.90;;;;;;4984471;28;20060;-82
2023/06/22 06:45:12;;;;;;;8.02;7.22;;;22.10;99.90;;;;;;5004342;28;20056;-82
2023/06/22 06:47:38;;;;;;;6.63;6.05;;;22.20;99.90;;;;;;4986365;28;20052;-81
2023/06/22 06:50:05;;;;;;;7.57;6.88;;;22.20;99.90;;;;;;4997307;28;20416;-83
2023/06/22 06:52:30;;;;;;;10.70;9.55;;;22.20;99.90;;;;;;5000439;28;20056;-82
2023/06/22 06:54:56;;;;;;;9.85;8.85;;;22.00;99.90;;;;;;5002052;28;20033;-82
2023/06/22 06:57:22;;;;;;;8.35;7.05;;;22.10;99.90;;;;;;4999317;28;20033;-82
2023/06/22 06:59:49;;;;;;;8.73;7.78;;;22.20;99.90;;;;;;5002727;28;20470;-81
2023/06/22 07:02:15;;;;;;;7.32;6.55;;;22.10;99.90;;;;;;5000855;28;20038;-82
2023/06/22 07:04:41;;;;;;;7.60;6.90;;;21.80;99.90;;;;;;4998127;28;20038;-82
2023/06/22 07:07:07;;;;;;;9.90;8.90;;;21.80;99.90;;;;;;4997278;28;20030;-83
2023/06/22 07:09:33;;;;;;;10.10;9.13;;;22.00;99.90;;;;;;5000444;28;20129;-83
2023/06/22 07:11:58;;;;;;;7.93;7.07;;;21.90;99.90;;;;;;5017386;28;20100;-82
2023/06/22 07:14:24;;;;;;;6.07;5.53;;;22.20;99.90;;;;;;4979382;28;20022;-83
2023/06/22 07:16:50;;;;;;;5.00;4.50;;;22.50;99.90;;;;;;5003717;28;20375;-83
2023/06/22 07:19:15;;;;;;;9.15;8.25;;;22.60;99.90;;;;;;5000771;28;20026;-82
2023/06/22 07:21:41;;;;;;;6.97;6.32;;;22.50;99.90;;;;;;5019280;28;20073;-82
2023/06/22 07:24:07;;;;;;;7.28;6.53;;;22.60;99.90;;;;;;5016876;28;20113;-82
2023/06/22 07:26:33;;;;;;;9.38;8.48;;;22.50;99.90;;;;;;4980158;28;20034;-83
2023/06/22 07:28:59;;;;;;;7.22;6.35;;;22.40;99.90;;;;;;4999655;28;20034;-84
2023/06/22 07:31:25;;;;;;;7.03;6.32;;;22.60;99.90;;;;;;4981479;28;20038;-83
2023/06/22 07:33:51;;;;;;;7.07;6.32;;;22.50;99.90;;;;;;5000420;28;20475;-82
2023/06/22 07:36:18;;;;;;;8.38;7.53;;;22.60;99.90;;;;;;5002250;28;20042;-83
2023/06/22 07:38:43;;;;;;;9.98;8.98;;;22.50;99.90;;;;;;4979382;28;20550;-84
2023/06/22 07:41:09;;;;;;;8.27;7.47;;;22.70;99.90;;;;;;5015617;28;20157;-83
2023/06/22 07:43:36;;;;;;;9.82;8.82;;;22.80;99.90;;;;;;4999037;28;20470;-82
2023/06/22 07:46:06;;;;;;;7.43;6.70;;;23.10;99.90;;;;;;5001826;28;20033;-83
2023/06/22 07:48:31;;;;;;;7.05;6.45;;;23.40;99.90;;;;;;5001076;28;20044;-83
2023/06/22 07:50:57;;;;;;;6.10;5.25;;;23.40;99.90;;;;;;4998547;28;20577;-84
2023/06/22 07:53:23;;;;;;;11.05;9.95;;;23.40;99.90;;;;;;5000454;28;20038;-83
2023/06/22 07:55:50;;;;;;;10.00;9.00;;;23.40;99.90;;;;;;4978112;28;20557;-83
2023/06/22 07:58:16;;;;;;;6.85;5.90;;;23.50;99.90;;;;;;4981033;28;20034;-84
2023/06/22 08:00:41;;;;;;;7.43;6.78;;;23.50;99.90;;;;;;5001187;28;20026;-84
2023/06/22 08:03:07;;;;;;;7.70;6.93;;;23.40;99.90;;;;;;5015751;28;20041;-83
2023/06/22 08:05:33;;;;;;;6.63;6.03;;;23.40;99.90;;;;;;4981272;28;20059;-83
2023/06/22 08:07:59;;;;;;;5.55;5.03;;;23.60;99.90;;;;;;4978688;28;20030;-84
2023/06/22 08:10:25;;;;;;;6.65;5.95;;;23.70;99.90;;;;;;5001271;28;20057;-83
2023/06/22 08:12:52;;;;;;;6.90;5.55;;;23.60;99.90;;;;;;5003284;28;20032;-83
2023/06/22 08:15:18;;;;;;;5.38;4.88;;;23.60;99.90;;;;;;4981064;28;20128;-84
2023/06/22 08:17:45;;;;;;;5.03;4.43;;;23.70;99.90;;;;;;5002121;28;20125;-84
2023/06/22 08:20:14;;;;;;;5.53;5.03;;;23.70;99.90;;;;;;4980971;28;20457;-84
2023/06/22 08:22:41;;;;;;;7.68;6.95;;;23.60;99.90;;;;;;4999917;28;20033;-83
2023/06/22 08:25:07;;;;;;;7.38;6.68;;;23.70;99.90;;;;;;5004945;28;20030;-83
2023/06/22 08:27:33;;;;;;;8.68;7.90;;;23.70;99.90;;;;;;5004933;28;20033;-84
2023/06/22 08:30:00;;;;;;;7.07;6.47;;;23.90;99.90;;;;;;5020450;28;20046;-85
2023/06/22 08:32:29;;;;;;;6.30;5.70;;;24.40;99.90;;;;;;5001459;28;20056;-84
2023/06/22 08:34:55;;;;;;;6.15;5.25;;;25.00;99.90;;;;;;5021463;28;20035;-84
2023/06/22 08:37:24;;;;;;;8.55;7.47;;;25.20;99.90;;;;;;5019934;28;20064;-84
2023/06/22 08:39:50;;;;;;;7.32;6.63;;;24.80;99.90;;;;;;5016911;28;20719;-84
2023/06/22 08:42:16;;;;;;;8.38;7.57;;;24.50;99.90;;;;;;5005800;28;20034;-84
2023/06/22 08:44:42;;;;;;;8.15;7.22;;;24.40;99.90;;;;;;5004944;28;21831;-84
2023/06/22 08:47:07;;;;;;;7.40;6.70;;;24.40;99.90;;;;;;5005992;28;20026;-84
2023/06/22 08:49:33;;;;;;;4.90;4.50;;;25.30;99.90;;;;;;5004198;28;20395;-84
2023/06/22 08:51:59;;;;;;;5.55;5.03;;;25.50;99.90;;;;;;5002535;28;20071;-82
2023/06/22 08:54:24;;;;;;;6.07;5.07;;;25.60;99.90;;;;;;5018154;28;20033;-84
2023/06/22 08:56:50;;;;;;;4.25;3.85;;;25.80;99.90;;;;;;4983127;28;20088;-83
2023/06/22 08:59:16;;;;;;;6.25;5.30;;;26.10;99.90;;;;;;5020926;28;20066;-84
2023/06/22 09:01:45;;;;;;;3.65;3.10;;;26.00;99.90;;;;;;5006069;28;20021;-84
2023/06/22 09:04:11;;;;;;;3.17;2.30;;;26.00;99.90;;;;;;5004420;28;20113;-86
2023/06/22 09:06:44;;;;;;;4.68;3.30;;;26.00;99.90;;;;;;5020148;28;20042;-84
2023/06/22 09:09:10;;;;;;;5.82;4.10;;;25.60;99.90;;;;;;4983343;28;20034;-84
2023/06/22 09:11:36;;;;;;;3.75;2.97;;;25.60;99.90;;;;;;5004265;28;20068;-85
2023/06/22 09:14:01;;;;;;;4.05;3.55;;;25.90;99.90;;;;;;5036300;28;20260;-83
2023/06/22 09:16:27;;;;;;;3.72;2.60;;;26.50;99.90;;;;;;4986872;28;20030;-84
2023/06/22 09:18:52;;;;;;;6.07;5.47;;;26.60;99.90;;;;;;5001806;28;20091;-84
2023/06/22 09:21:18;;;;;;;3.92;3.45;;;26.70;99.90;;;;;;5000529;28;20116;-84
2023/06/22 09:23:46;;;;;;;4.35;3.58;;;26.80;99.90;;;;;;5004295;28;20132;-84
2023/06/22 09:26:12;;;;;;;4.38;3.78;;;26.60;99.90;;;;;;5001518;28;20034;-84
2023/06/22 09:28:38;;;;;;;5.25;3.55;;;26.30;99.90;;;;;;5017429;28;20084;-84
2023/06/22 09:31:04;;;;;;;3.10;2.72;;;26.00;99.90;;;;;;5004510;28;20062;-84
2023/06/22 09:33:29;;;;;;;6.35;4.25;;;26.00;99.90;;;;;;4981340;28;20026;-84
2023/06/22 09:35:56;;;;;;;3.53;1.88;;;26.00;99.90;;;;;;4983607;28;20038;-85
2023/06/22 09:38:22;;;;;;;3.05;2.30;;;25.90;99.90;;;;;;4981974;28;20592;-84
2023/06/22 09:40:47;;;;;;;3.33;2.90;;;25.80;99.90;;;;;;5003793;28;20068;-83
2023/06/22 09:43:13;;;;;;;3.20;2.67;;;25.90;99.90;;;;;;4982173;28;20076;-84
2023/06/22 09:45:39;;;;;;;3.97;3.60;;;25.80;99.90;;;;;;5002048;28;20125;-84
2023/06/22 09:48:05;;;;;;;3.88;3.45;;;25.70;99.90;;;;;;5000042;28;20041;-85
2023/06/22 09:50:30;;;;;;;3.83;3.45;;;25.70;99.90;;;;;;4983543;28;20069;-84
2023/06/22 09:52:56;;;;;;;3.42;2.00;;;25.70;99.90;;;;;;5017734;28;20037;-83
2023/06/22 09:55:22;;;;;;;4.20;3.20;;;25.60;99.90;;;;;;5003576;28;20474;-85
2023/06/22 09:57:48;;;;;;;2.83;2.33;;;25.30;99.90;;;;;;5001161;28;20120;-84
2023/06/22 10:00:16;;;;;;;4.70;3.05;;;25.30;99.90;;;;;;5020100;28;20592;-84
2023/06/22 10:02:42;;;;;;;4.25;2.47;;;25.20;99.90;;;;;;4980827;28;20084;-84
2023/06/22 10:05:08;;;;;;;2.30;1.58;;;25.10;99.90;;;;;;5001260;28;20080;-85
2023/06/22 10:07:34;;;;;;;3.55;2.47;;;25.20;99.90;;;;;;5003937;28;20022;-84
2023/06/22 10:10:00;;;;;;;2.58;1.75;;;25.00;99.90;;;;;;4984816;28;20104;-85
2023/06/22 10:12:27;;;;;;;3.60;2.80;;;25.00;99.90;;;;;;4999726;28;20032;-84
2023/06/22 10:14:53;;;;;;;3.72;2.15;;;24.80;99.90;;;;;;5018687;28;20052;-84
2023/06/22 10:17:19;;;;;;;3.03;1.88;;;24.70;99.90;;;;;;4998299;28;20029;-83
2023/06/22 10:19:44;;;;;;;3.53;2.70;;;24.60;99.90;;;;;;4980382;28;20053;-84
2023/06/22 10:22:10;;;;;;;2.75;1.90;;;24.40;99.90;;;;;;5002825;28;20033;-84
2023/06/22 10:24:36;;;;;;;3.83;2.70;;;24.50;99.90;;;;;;4999809;28;20479;-84
2023/06/22 10:27:02;;;;;;;3.55;2.10;;;24.50;99.90;;;;;;5002529;28;20069;-84
2023/06/22 10:29:27;;;;;;;2.55;2.08;;;24.50;99.90;;;;;;5002728;28;20037;-85
2023/06/22 10:31:53;;;;;;;4.32;1.63;;;24.60;99.90;;;;;;5003095;28;20027;-84
2023/06/22 10:34:19;;;;;;;3.97;2.05;;;24.60;99.90;;;;;;4982456;28;20053;-82
2023/06/22 10:36:48;;;;;;;2.63;2.42;;;24.50;99.90;;;;;;5003949;28;20026;-82
2023/06/22 10:39:15;;;;;;;4.15;2.25;;;24.50;99.90;;;;;;5002442;28;20120;-84
2023/06/22 10:41:41;;;;;;;4.75;3.08;;;24.50;99.90;;;;;;5001908;28;20030;-82
2023/06/22 10:44:07;;;;;;;3.08;2.25;;;24.40;99.90;;;;;;5002950;28;20113;-82
2023/06/22 10:46:32;;;;;;;2.85;2.53;;;24.50;99.90;;;;;;4981771;28;20021;-83
2023/06/22 10:48:58;;;;;;;4.03;2.70;;;24.40;99.90;;;;;;5001199;28;20033;-82
2023/06/22 10:51:25;;;;;;;5.15;3.17;;;24.30;99.90;;;;;;4984675;28;20046;-83
2023/06/22 10:53:51;;;;;;;4.43;3.20;;;24.20;99.90;;;;;;4999166;28;20033;-83
2023/06/22 10:56:18;;;;;;;2.50;2.03;;;24.10;99.90;;;;;;5001003;28;20026;-83
2023/06/22 10:58:45;;;;;;;3.13;2.00;;;24.00;99.90;;;;;;4999738;28;20034;-84
2023/06/22 11:01:10;;;;;;;2.67;2.25;;;24.10;99.90;;;;;;4983561;28;20037;-82
2023/06/22 11:03:36;;;;;;;3.97;3.03;;;24.00;99.90;;;;;;4996969;28;20030;-83
2023/06/22 11:06:02;;;;;;;4.00;3.15;;;23.90;99.90;;;;;;5002084;28;20052;-83
2023/06/22 11:08:27;;;;;;;3.13;2.30;;;23.80;99.90;;;;;;5001701;28;20086;-83
2023/06/22 11:10:53;;;;;;;4.50;4.10;;;23.80;99.90;;;;;;5003853;28;20707;-83
2023/06/22 11:13:19;;;;;;;4.05;3.25;;;23.70;99.90;;;;;;5035044;28;20065;-83
2023/06/22 11:15:44;;;;;;;6.38;2.97;;;23.70;99.90;;;;;;4996412;28;20038;-83
2023/06/22 11:18:10;;;;;;;4.05;2.67;;;23.70;99.90;;;;;;5002556;28;20044;-82
2023/06/22 11:20:38;;;;;;;4.45;3.17;;;23.70;99.90;;;;;;5001724;28;20503;-82
2023/06/22 11:23:07;;;;;;;3.15;2.60;;;23.60;99.90;;;;;;4984097;28;20046;-83
2023/06/22 11:25:38;;;;;;;2.58;2.35;;;23.60;99.90;;;;;;4980892;28;20027;-83
2023/06/22 11:28:04;;;;;;;4.38;3.33;;;23.70;99.90;;;;;;5002803;28;20423;-85
2023/06/22 11:30:30;;;;;;;5.53;4.93;;;23.60;99.90;;;;;;4982110;28;20533;-83
2023/06/22 11:32:58;;;;;;;5.30;4.80;;;23.50;99.90;;;;;;5000940;28;20021;-84
2023/06/22 11:35:24;;;;;;;5.15;4.53;;;23.50;99.90;;;;;;5001129;28;20096;-83
2023/06/22 11:37:49;;;;;;;3.30;2.90;;;23.40;99.90;;;;;;5002214;28;20025;-81
2023/06/22 11:40:17;;;;;;;3.88;3.20;;;23.40;99.90;;;;;;5017414;28;20026;-84
2023/06/22 11:42:43;;;;;;;3.55;2.72;;;23.40;99.90;;;;;;5015991;28;20530;-82
2023/06/22 11:45:09;;;;;;;3.03;2.72;;;23.40;99.90;;;;;;5002634;28;20105;-84
2023/06/22 11:47:36;;;;;;;3.42;2.25;;;23.40;99.90;;;;;;5001525;28;20037;-83
2023/06/22 11:50:02;;;;;;;4.13;2.47;;;23.40;99.90;;;;;;5002602;28;20037;-82
2023/06/22 11:52:28;;;;;;;3.92;2.30;;;23.30;99.90;;;;;;5001709;28;20045;-84
2023/06/22 11:54:53;;;;;;;3.22;2.40;;;23.30;99.90;;;;;;5000989;28;20034;-84
2023/06/22 11:57:19;;;;;;;4.30;2.35;;;23.20;99.90;;;;;;4981167;28;20030;-82
2023/06/22 11:59:45;;;;;;;3.45;2.78;;;23.00;99.90;;;;;;5021459;28;20034;-82
2023/06/22 12:02:11;;;;;;;2.75;2.42;;;23.00;99.90;;;;;;5002516;28;20030;-84
2023/06/22 12:04:37;;;;;;;4.65;4.22;;;22.80;99.90;;;;;;5005660;28;20026;-83
2023/06/22 12:07:03;;;;;;;4.72;3.63;;;22.60;99.90;;;;;;5004230;28;20492;-84
2023/06/22 12:09:29;;;;;;;4.05;3.50;;;22.50;99.90;;;;;;5022838;28;20483;-83
2023/06/22 12:11:55;;;;;;;4.32;3.83;;;22.40;99.90;;;;;;4988376;28;20029;-84
2023/06/22 12:14:21;;;;;;;6.22;3.20;;;22.20;99.90;;;;;;4988786;28;20503;-84
2023/06/22 12:16:47;;;;;;;4.70;2.83;;;22.10;99.90;;;;;;5004026;28;20022;-83
2023/06/22 12:19:12;;;;;;;5.30;4.68;;;22.00;99.90;;;;;;5022445;28;20537;-82
2023/06/22 12:21:40;;;;;;;4.18;3.78;;;21.80;99.90;;;;;;4983855;28;20237;-83
2023/06/22 12:24:06;;;;;;;4.10;2.65;;;21.80;99.90;;;;;;4984191;28;20022;-83
2023/06/22 12:26:32;;;;;;;2.80;2.47;;;21.70;99.90;;;;;;5022823;28;20061;-84
2023/06/22 12:28:57;;;;;;;2.78;2.10;;;21.60;99.90;;;;;;5023083;28;20029;-84
2023/06/22 12:31:23;;;;;;;3.70;2.28;;;21.60;99.90;;;;;;4984358;28;20439;-84
2023/06/22 12:33:50;;;;;;;3.90;2.85;;;21.50;99.90;;;;;;5006618;28;20073;-85
2023/06/22 12:36:16;;;;;;;2.75;1.63;;;21.50;99.90;;;;;;4982723;28;20454;-82
2023/06/22 12:38:42;;;;;;;3.17;2.85;;;21.40;99.90;;;;;;4967071;28;20044;-82
2023/06/22 12:41:07;;;;;;;4.25;3.85;;;21.30;99.90;;;;;;4981621;28;20684;-81
2023/06/22 12:43:33;;;;;;;3.35;2.80;;;21.20;99.90;;;;;;4985352;28;20022;-82